Lynradar: storm image Ingen tordenbyger registrert..



Vårt webkamera mer informasjon My webcam


Kamera på Foreneset mer informasjon webcam on foreneset


Lynradar mer informasjon blitzortung!


Nedbørsradar  rain snow radar


Besøk vår andre værside:

Alternativ webside

iphone versjon

Nettbrett versjon

Foreneset
verstasjon



Ikke nødvendig med spesiell oppmerksomhet.    Det er ingen advarsler

Select another period ( hide this area )

enheter Periode Custom range Directly to
Metric Engelsk Begge
Daglig Weekly Månedlig Årlig
use both date-selectors for a custom range
previous Dag
With this date

WeatherUnderground graphs for this period ( click here )


Daglig sammendrag for Søndag 20 Januar 2019
Tid Temp. ( °C ) Dew pt. ( °C ) Vind ( km/h ) fra Vindkast ( km/h ) Trykk ( hPa ) Humid.( % ) Rainrate ( cm ) Sol ( W/m2 )
Max3,6 2,7 28,0 SSØ ( 1117/2402 ) 35,2 1015,7 98 2,00 69
Snitt1,9 1,1 8,7 SSØ #86/276 12,1 1014,5 94 1,40 27 #81/276
Min-2,4 -2,8 -   0,0 1012,1 88 -  
Daglig Tabular details for Søndag 20 Januar 2019
Tid Temp. ( °C ) Dew pt. ( °C ) Vind ( km/h ) fra Vindkast ( km/h ) Trykk ( hPa ) Humid.( % ) Rainrate ( cm ) Sol ( W/m2 )
00:04 -0,2 -0,6   Stille   1014,6 97 - -
00:09 -0,4 -0,8   Stille   1014,7 97 - -
00:14 -1,4 -1,9   Stille   1014,8 96 - -
00:19 -1,5 -2,1   Stille   1014,7 96 - -
00:24 -0,9 -1,3   Stille   1014,7 97 - -
00:29 -0,8 -1,2   Stille   1014,7 97 - -
00:34 -1,1 -1,4   Stille   1014,7 97 - -
00:39 -1,1 -1,4   Stille   1014,7 97 - -
00:44 -0,6 -0,9 2,1 ØNØ 3,4 1014,7 98 - -
00:49 -1,8 -2,3   Stille   1014,8 96 - -
00:54 -2,2 -2,6 2,1 ØNØ 3,7 1014,8 97 - -
00:59 -1,5 -1,8 3,9 ØNØ 5,6 1014,7 98 - -
01:04 -1,2 -1,5 4,2 ØNØ 5,6 1014,7 98 - -
01:09 -1,6 -1,9 1,6 ØNØ 3,7 1014,7 97 - -
01:14 -1,7 -2,1 0,6 ØNØ 3,7 1014,8 97 - -
01:19 -1,9 -2,3   Stille   1014,9 97 - -
01:24 -1,7 -2,1   Stille   1014,9 97 - -
01:29 -1,7 -2,1   Stille   1014,9 97 - -
01:34 -2,4 -2,8   Stille   1014,9 97 - -
01:39 -2,0 -2,4   Stille   1014,8 97 - -
01:44 -1,9 -2,2   Stille   1014,8 98 - -
01:49 -1,7 -2,0 1,8 ØNØ 3,4 1014,8 98 - -
01:54 -1,9 -2,3 2,6 ØNØ 3,7 1014,8 97 - -
01:59 -1,8 -2,1 1,4 ØNØ 3,7 1014,8 98 - -
02:04 -1,6 -1,8   Stille   1014,9 98 - -
02:09 -1,3 -1,6 0,6 ØNØ 1,9 1014,8 98 - -
02:14 -0,9 -1,2 5,8 ØNØ 7,4 1014,8 98 - -
02:19 -1,4 -1,7 0,3 ØNØ 3,7 1014,8 98 - -
02:24 -2,2 -2,6 2,1 ØNØ 3,7 1014,8 97 - -
02:29 -1,8 -2,1 2,7 ØNØ 3,7 1014,8 98 - -
02:34 -1,9 -2,3 0,2 ØNØ 1,6 1014,8 97 - -
02:39 -1,7 -2,1 4,5 ØNØ 5,6 1014,7 97 - -
02:44 -1,7 -2,1 2,7 ØNØ 3,7 1014,8 97 - -
02:49 -1,5 -1,8 3,4 ØNØ 3,7 1014,8 98 - -
02:54 -1,1 -1,3 4,5 ØNØ 5,6 1014,8 98 - -
02:59 -1,6 -1,9 6,4 ØNØ 8,4 1014,7 97 - -
03:04 -0,7 -0,9 6,8 ØNØ 11,1 1014,8 98 - -
03:09 -0,2 -0,5 4,7 Øst 6,8 1014,8 98 - -
03:14 0,2 -0,1 5,0 ØNØ 5,6 1014,9 98 - -
03:19 0,4 0,1 5,5 ØNØ 7,4 1014,9 98 - -
03:24 -0,4 -0,9 6,3 ØNØ 7,4 1014,8 97 - -
03:29 -0,6 -1,1 5,1 ØNØ 7,4 1014,9 97 - -
03:34 -0,1 -0,4 6,8 ØNØ 9,3 1014,9 98 - -
03:39 0,6 0,3 6,4 ØNØ 7,4 1014,9 98 - -
03:44 0,7 0,4 3,5 Øst 5,6 1015,0 98 - -
03:49 0,5 0,1   Stille   1015,0 97 - -
03:54 0,7 0,2 3,1 Øst 3,7 1014,9 97 - -
03:59 0,7 0,3 3,9 Øst 5,6 1014,9 97 - -
04:04 0,8 0,4 5,3 Øst 5,6 1014,8 97 - -
04:09 0,7 0,2 4,0 Øst 5,6 1014,9 97 - -
04:14 0,7 0,3 3,7 Øst 5,6 1014,8 97 - -
04:19 0,8 0,4 3,7 Øst 5,6 1014,8 97 - -
04:24 0,6 0,1 3,4 Øst 5,1 1014,8 96 - -
04:29 0,2 -0,3 5,1 Øst 6,8 1014,8 96 - -
04:34 0,7 0,2 6,4 ØNØ 7,4 1014,8 97 - -
04:39 1,0 0,6 8,5 9,3 1014,8 97 - -
04:44 1,1 0,6 6,6 ØNØ 9,3 1014,8 96 - -
04:49 1,1 0,6 7,1 ØNØ 9,3 1014,7 96 - -
04:54 1,2 0,6 6,6 ØNØ 9,3 1014,7 96 - -
04:59 1,2 0,5 5,0 ØNØ 7,4 1014,8 95 - -
05:04 1,1 0,4 2,4 ØNØ 3,7 1014,8 95 - -
05:09 1,1 0,3 5,1 ØNØ 7,4 1014,8 95 - -
05:14 1,2 0,4 4,0 ØNØ 5,6 1014,7 95 - -
05:19 1,1 0,4 1,3 ØNØ 3,7 1014,7 95 - -
05:24 1,1 0,3 2,4 ØNØ 5,6 1014,7 95 - -
05:29 1,0 0,3   Stille   1014,7 95 - -
05:34 0,9 0,2 0,8 ØNØ 1,9 1014,8 95 - -
05:39 1,1 0,4 2,4 ØNØ 3,7 1014,7 95 - -
05:44 1,3 0,6 3,7 ØNØ 5,6 1014,7 95 - -
05:49 1,2 0,4   Stille   1014,7 94 - -
05:54 1,2 0,4   Stille   1014,7 94 - -
05:59 1,3 0,4   Stille   1014,7 94 - -
06:04 1,2 0,4   Stille   1014,7 94 - -
06:09 1,2 0,4 4,0 ØNØ 6,8 1014,6 94 - -
06:14 1,3 0,4 6,8 9,3 1014,6 94 - -
06:19 1,4 0,4 6,0 7,4 1014,6 93 - -
06:24 1,4 0,4 4,3 5,6 1014,6 93 - -
06:29 1,4 0,4 4,3 5,6 1014,6 93 - -
06:34 1,4 0,4 2,4 5,6 1014,6 93 - -
06:39 1,3 0,3 0,8 1,9 1014,6 93 - -
06:44 1,3 0,4   Stille   1014,5 94 - -
06:49 1,5 0,7   Stille   1014,6 94 - -
06:54 1,3 0,5   Stille   1014,7 94 - -
06:59 1,3 0,6   Stille   1014,7 95 - -
07:04 1,3 0,6   Stille   1014,7 95 - -
07:09 1,1 0,4   Stille   1014,8 95 - -
07:14 1,1 0,4   Stille   1014,7 95 - -
07:19 1,1 0,6   Stille   1014,6 96 - -
07:24 1,3 0,7 7,1 9,3 1014,6 96 - -
07:29 1,4 0,8 5,8 9,3 1014,6 96 - -
07:34 1,4 0,8 6,4 NNØ 9,3 1014,7 96 - -
07:39 1,4 1,0 6,0 NNØ 7,4 1014,7 97 - -
07:44 1,6 1,1 5,6 7,4 1014,8 97 - -
07:49 1,4 0,9 8,2 ØNØ 11,9 1014,7 97 - -
07:54 1,6 1,1 9,7 ØNØ 11,9 1014,7 97 - -
07:59 1,6 1,2 11,1 ØNØ 13,0 1014,8 97 - -
08:04 1,7 1,1 8,4 ØNØ 11,1 1014,7 96 - -
08:09 1,6 1,1 7,2 Øst 9,3 1014,9 96 - -
08:14 1,6 1,1 9,7 13,5 1014,9 96 1,00 -
08:19 1,6 1,1 8,2 11,1 1014,9 96 1,00 -
08:24 1,7 1,1 5,8 ØNØ 9,3 1014,9 96 1,00 -
08:29 1,7 1,1 5,5 ØNØ 7,4 1015,0 96 1,00 -
08:34 1,7 1,1 5,5 ØNØ 7,4 1015,0 96 1,00 -
08:39 1,7 1,1 8,5 ØNØ 11,9 1015,0 96 1,00 -
08:44 1,7 1,1 2,1 Øst 3,7 1015,1 96 1,00 -
08:49 1,8 1,2 5,6 ØNØ 9,3 1015,0 96 1,00 -
08:54 1,8 1,2   Stille   1015,1 96 1,00 -
08:59 1,7 1,0 7,4 Øst 9,3 1015,1 95 1,00 -
09:04 1,7 1,2 5,3 Øst 9,3 1015,2 96 1,00 -
09:09 1,8 1,2 2,6 Øst 5,6 1015,2 96 1,00 -
09:14 1,8 1,2 5,1 Øst 7,4 1015,2 96 - -
09:19 1,8 1,2 7,4 ØNØ 11,9 1015,2 96 - -
09:24 1,8 1,2 5,8 ØNØ 7,4 1015,3 96 - -
09:29 1,8 1,2 5,8 9,3 1015,4 96 - -
09:34 1,7 1,2 5,5 ØNØ 7,4 1015,4 96 - 5
09:39 1,7 1,1 8,0 Øst 11,9 1015,3 96 - 9
09:44 1,7 1,1 6,3 Øst 9,3 1015,3 96 - 11
09:49 1,7 1,1 6,4 ØNØ 8,4 1015,4 96 - 14
09:54 1,7 1,2 3,9 Øst 5,6 1015,4 96 - 21
09:59 1,7 1,2 4,5 Øst 7,4 1015,5 96 - 30
10:04 1,8 1,3 4,0 Øst 7,4 1015,6 96 - 32
10:09 1,9 1,3 5,1 ØNØ 7,4 1015,6 96 - 32
10:14 2,0 1,4 1,9 7,4 1015,7 96 - 25
10:19 2,0 1,4 0,8 3,7 1015,6 96 - 18
10:24 2,1 1,5 5,3 ØSØ 9,3 1015,6 96 - 11
10:29 2,1 1,5 7,9 11,9 1015,6 96 - 12
10:34 2,3 1,8 7,4 ØSØ 10,1 1015,6 96 - 11
10:39 2,4 1,9 8,7 11,9 1015,6 96 - 9
10:44 2,5 1,9 10,5 SSØ 15,3 1015,5 96 - 9
10:49 2,5 1,9 8,5 10,1 1015,5 96 - 12
10:54 2,5 1,9 8,5 SSØ 13,5 1015,5 96 - 14
10:59 2,6 1,8 6,8 SSØ 9,3 1015,5 95 - 21
11:04 2,6 1,9 8,5 SSØ 13,5 1015,5 95 - 28
11:09 2,7 2,0 8,7 SSØ 11,9 1015,6 95 - 32
11:14 2,7 2,0 7,9 Sør 9,3 1015,5 95 - 30
11:19 2,8 2,1 8,8 SSØ 10,1 1015,6 95 - 26
11:24 2,8 2,1 8,5 Sør 9,3 1015,5 95 - 25
11:29 2,8 2,1 10,8 Sør 13,5 1015,6 95 - 19
11:34 2,8 2,1 9,0 Sør 11,1 1015,6 95 - 16
11:39 2,8 2,1 12,6 Sør 15,3 1015,6 95 - 19
11:44 2,8 2,1 9,5 SSØ 16,9 1015,5 95 - 25
11:49 2,9 2,2 9,2 14,8 1015,5 95 - 28
11:54 3,0 2,3 11,4 SSØ 13,0 1015,5 95 - 19
11:59 3,1 2,3 12,2 SSØ 18,5 1015,5 95 - 18
12:04 3,1 2,4 12,2 SSØ 16,7 1015,4 95 - 16
12:09 3,1 2,4 14,8 SSØ 16,9 1015,4 95 - 16
12:14 3,1 2,3 14,8 Sør 16,9 1015,4 95 - 16
12:19 3,1 2,2 14,0 SSØ 16,7 1015,3 94 - 16
12:24 3,1 2,2 7,2 Sør 13,0 1015,3 94 - 18
12:29 3,1 2,2 11,3 SSØ 14,8 1015,3 94 - 33
12:34 3,1 2,2 7,9 SSØ 13,0 1015,4 94 - 46
12:39 3,1 2,2 9,0 SSØ 13,0 1015,4 94 - 51
12:44 3,1 2,2 12,6 SSØ 16,7 1015,4 94 - 40
12:49 3,2 2,3 12,1 SSØ 15,3 1015,4 94 - 37
12:54 3,2 2,3 11,7 Sør 15,3 1015,4 94 - 21
12:59 3,1 2,2 9,3 SSØ 11,1 1015,4 94 - 35
13:04 3,1 2,2 9,8 SSØ 13,0 1015,4 94 - 37
13:09 3,1 2,2 10,6 SSØ 13,5 1015,4 94 - 32
13:14 3,2 2,3 8,4 SSØ 11,1 1015,4 94 - 39
13:19 3,1 2,2 10,0 13,5 1015,3 94 - 33
13:24 3,2 2,3 10,0 SSØ 14,8 1015,3 94 - 25
13:29 3,3 2,4 10,1 Sør 14,8 1015,3 94 - 42
13:34 3,3 2,4 8,0 SSØ 10,1 1015,3 94 - 49
13:39 3,3 2,4 7,9 SSØ 11,9 1015,3 94 - 40
13:44 3,3 2,4 9,3 SSØ 16,7 1015,3 94 - 33
13:49 3,4 2,5 8,2 SSØ 13,0 1015,2 94 - 47
13:54 3,4 2,5 12,2 SSØ 16,9 1015,2 94 - 49
13:59 3,5 2,6 12,1 SSØ 13,5 1015,1 94 - 56
14:04 3,6 2,7 12,1 Sør 18,5 1015,2 94 - 56
14:09 3,6 2,7 13,5 Sør 16,9 1015,1 94 - 49
14:14 3,6 2,7 10,9 13,5 1015,0 94 - 69
14:19 3,6 2,7 12,2 SSØ 18,5 1015,0 94 - 46
14:24 3,6 2,7 12,7 Sør 18,5 1015,0 94 0,30 42
14:29 3,6 2,7 13,2 Sør 20,4 1014,9 94 0,30 53
14:34 3,6 2,7 14,0 SSØ 18,5 1014,9 94 0,30 33
14:39 3,6 2,6 11,9 SSØ 16,9 1014,9 93 0,30 26
14:44 3,6 2,6 12,6 Sør 16,9 1014,9 93 0,30 26
14:49 3,6 2,6 12,4 Sør 16,9 1014,9 93 0,30 40
14:54 3,6 2,6 10,9 SSØ 14,8 1014,9 93 0,30 30
14:59 3,6 2,6 12,9 SSØ 14,8 1014,8 93 0,30 21
15:04 3,5 2,5 10,3 Sør 15,3 1014,8 93 0,30 18
15:09 3,6 2,6 13,5 SSØ 22,2 1014,8 93 0,30 21
15:14 3,6 2,6 10,0 Sør 22,2 1014,8 93 0,30 19
15:19 3,6 2,6 11,4 SSØ 16,9 1014,8 93 0,30 25
15:24 3,6 2,6 13,2 SSØ 16,7 1014,8 93 - 21
15:29 3,6 2,6 16,3 Sør 20,4 1014,8 93 - 19
15:34 3,5 2,5 11,4 SSØ 15,3 1014,7 93 - 18
15:39 3,5 2,5 10,3 Sør 18,5 1014,8 93 - 16
15:44 3,4 2,4 16,3 SSØ 20,4 1014,7 93 - 16
15:49 3,4 2,4 13,2 SSØ 18,5 1014,7 93 - 16
15:54 3,4 2,4 14,2 Sør 18,5 1014,7 93 - 14
15:59 3,4 2,4 11,4 SSØ 16,7 1014,6 93 - 16
16:04 3,4 2,4 14,2 SSØ 20,3 1014,6 93 - 16
16:09 3,3 2,3 13,2 SSØ 16,9 1014,6 93 - 9
16:14 3,4 2,4 10,8 SSØ 16,7 1014,6 93 - 7
16:19 3,3 2,3 13,2 SSØ 18,5 1014,6 93 - -
16:24 3,4 2,4 11,9 SSØ 14,8 1014,5 93 - -
16:29 3,3 2,3 12,4 SSØ 18,5 1014,5 93 - -
16:34 3,3 2,3 11,9 SSØ 16,7 1014,5 93 - -
16:39 3,3 2,3 14,5 Sør 18,5 1014,6 93 - -
16:44 3,3 2,3 11,9 Sør 20,4 1014,6 93 - -
16:49 3,3 2,3 10,6 Sør 14,8 1014,5 93 - -
16:54 3,3 2,3 13,4 SSØ 18,5 1014,6 93 - -
16:59 3,3 2,2 11,7 SSØ 18,5 1014,5 92 - -
17:04 3,3 2,1 12,4 Sør 16,7 1014,5 92 - -
17:09 3,2 2,1 12,6 SSØ 14,8 1014,4 92 - -
17:14 3,2 2,1 11,6 SSØ 16,9 1014,4 92 - -
17:19 3,2 2,0 10,5 SSØ 16,7 1014,4 92 - -
17:24 3,2 2,0 12,7 SSØ 16,7 1014,3 92 - -
17:29 3,1 1,9 12,2 SSØ 15,3 1014,2 92 - -
17:34 3,2 2,0 11,9 SSØ 16,7 1014,1 92 - -
17:39 3,2 1,9 12,7 SSØ 16,7 1014,0 91 - -
17:44 3,2 1,9 9,3 16,7 1014,1 91 - -
17:49 3,2 1,8 10,3 SSØ 13,5 1014,1 91 - -
17:54 3,2 1,9 10,9 SSØ 14,8 1014,1 91 - -
17:59 3,1 1,6 12,1 SSØ 14,8 1014,1 90 - -
18:04 3,1 1,6 9,2 Sør 14,8 1014,1 90 - -
18:09 3,1 1,6 14,0 SSØ 15,3 1014,0 90 - -
18:14 3,1 1,6 10,3 SSØ 16,7 1013,9 90 - -
18:19 3,1 1,6 9,3 SSØ 16,7 1013,8 90 - -
18:24 3,2 1,7 12,7 Sør 18,5 1013,7 90 - -
18:29 3,2 1,7 13,0 SSØ 18,5 1013,7 90 - -
18:34 3,3 1,6 9,0 13,0 1013,7 89 - -
18:39 3,3 1,6 10,8 Sør 18,5 1013,6 89 - -
18:44 3,3 1,6 12,1 SSØ 16,7 1013,7 89 - -
18:49 3,3 1,6 14,2 SSØ 20,4 1013,6 89 - -
18:54 3,3 1,6 14,3 Sør 18,5 1013,6 89 - -
18:59 3,3 1,6 12,9 SSØ 22,2 1013,5 89 - -
19:04 3,3 1,6 15,1 SSØ 18,5 1013,5 89 - -
19:09 3,3 1,6 12,9 20,4 1013,4 89 - -
19:14 3,3 1,6 12,6 SSØ 14,8 1013,3 88 - -
19:19 3,3 1,5 14,8 SSØ 18,5 1013,3 88 - -
19:24 3,3 1,5 14,5 SSØ 20,4 1013,2 88 - -
19:29 3,4 1,6 14,3 SSØ 20,4 1013,2 88 - -
19:34 3,4 1,6 15,1 SSØ 16,9 1013,2 88 - -
19:39 3,5 1,7 19,5 SSØ 27,0 1013,2 88 - -
19:44 3,6 1,8 19,1 SSØ 22,0 1013,2 88 - -
19:49 3,6 1,8 21,7 SSØ 24,1 1013,1 88 - -
19:54 3,6 1,8 14,2 SSØ 18,5 1013,1 88 - -
19:59 3,5 1,8 15,0 Sør 20,4 1013,1 89 - -
20:04 3,4 1,8 18,2 Sør 22,0 1013,0 89 - -
20:09 3,4 1,9 18,2 Sør 22,0 1013,0 90 - -
20:14 3,4 1,9 15,4 Sør 22,2 1012,9 90 - -
20:19 3,4 1,9 14,3 Sør 20,3 1012,8 90 - -
20:24 3,4 2,1 17,7 SSØ 22,0 1012,8 91 - -
20:29 3,4 2,1 21,4 SSØ 25,3 1012,8 91 - -
20:34 3,4 2,1 16,6 Sør 22,2 1012,8 91 - -
20:39 3,4 2,3 17,1 Sør 25,9 1012,7 92 0,30 -
20:44 3,4 2,2 12,6 SSØ 24,1 1012,7 92 0,30 -
20:49 3,3 2,3 17,5 Sør 24,1 1012,7 93 0,30 -
20:53 3,3 2,3 19,3 Sør 23,7 1012,5 93 0,30 -
20:59 3,3 2,3 15,3 22,0 1012,5 93 0,30 -
21:04 3,3 2,3 24,9 SSØ 31,5 1012,5 93 0,30 -
21:09 3,2 2,2 28,0 Sør 33,8 1012,4 93 0,50 -
21:14 3,2 2,3 19,3 SSØ 25,9 1012,4 94 0,50 -
21:19 3,1 2,2 20,0 Sør 27,0 1012,4 94 0,50 -
21:24 2,9 2,1 22,2 SSØ 30,4 1012,4 94 0,50 -
21:29 2,8 1,9 26,4 SSØ 35,2 1012,4 94 0,50 -
21:34 2,7 2,0 24,1 SSØ 30,4 1012,4 95 0,50 -
21:39 2,6 1,9 19,0 25,3 1012,3 95 0,30 -
21:44 2,6 1,8 16,7 SSØ 27,8 1012,2 95 0,50 -
21:49 2,4 1,7 18,2 23,7 1012,2 95 0,50 -
21:54 2,4 1,7 17,4 SSØ 25,9 1012,2 95 0,50 -
21:59 2,4 1,7 20,4 25,9 1012,1 95 0,50 -
22:04 2,4 1,9 13,4 SV 20,4 1012,3 96 0,50 -
22:09 2,4 1,9 20,1 SV 32,0 1012,7 96 0,50 -
22:13 2,7 2,1 14,5 VEST 18,5 1012,7 96 0,50 -
22:19 2,6 2,1 12,7 VEST 16,7 1012,8 96 0,80 -
22:24 2,5 1,9 21,9 NV 29,6 1012,8 96 1,00 -
22:29 2,5 1,9 9,7 NV 15,3 1012,9 96 1,50 -
22:34 2,4 1,8 10,9 NNV 18,5 1013,0 96 1,50 -
22:39 2,4 1,8 13,0 NV 20,4 1012,9 96 1,80 -
22:44 2,4 1,9 10,8 NNV 18,5 1012,9 96 1,80 -
22:49 2,4 1,9 7,6 NV 11,1 1012,8 96 1,80 -
22:54 2,5 1,9 8,8 NNV 11,9 1012,8 96 2,00 -
22:59 2,5 1,9 5,3 NV 9,3 1012,8 96 2,00 -
Daglig sammendrag for Søndag 20 Januar 2019
Tid Temp. ( °C ) Dew pt. ( °C ) Vind ( km/h ) fra Vindkast ( km/h ) Trykk ( hPa ) Humid.( % ) Rainrate ( cm ) Sol ( W/m2 )
Max3,6 2,7 28,0 SSØ ( 1117/2402 ) 35,2 1015,7 98 2,00 69
Snitt1,9 1,1 8,7 SSØ #86/276 12,1 1014,5 94 1,40 27 #81/276
Min-2,4 -2,8 -   0,0 1012,1 88 -  
Daglig Tabular details for Søndag 20 Januar 2019
Tid Temp. ( °C ) Dew pt. ( °C ) Vind ( km/h ) fra Vindkast ( km/h ) Trykk ( hPa ) Humid.( % ) Rainrate ( cm ) Sol ( W/m2 )
00:04 -0,2 -0,6   Stille   1014,6 97 - -
00:09 -0,4 -0,8   Stille   1014,7 97 - -
00:14 -1,4 -1,9   Stille   1014,8 96 - -
00:19 -1,5 -2,1   Stille   1014,7 96 - -
00:24 -0,9 -1,3   Stille   1014,7 97 - -
00:29 -0,8 -1,2   Stille   1014,7 97 - -
00:34 -1,1 -1,4   Stille   1014,7 97 - -
00:39 -1,1 -1,4   Stille   1014,7 97 - -
00:44 -0,6 -0,9 2,1 ØNØ 3,4 1014,7 98 - -
00:49 -1,8 -2,3   Stille   1014,8 96 - -
00:54 -2,2 -2,6 2,1 ØNØ 3,7 1014,8 97 - -
00:59 -1,5 -1,8 3,9 ØNØ 5,6 1014,7 98 - -
01:04 -1,2 -1,5 4,2 ØNØ 5,6 1014,7 98 - -
01:09 -1,6 -1,9 1,6 ØNØ 3,7 1014,7 97 - -
01:14 -1,7 -2,1 0,6 ØNØ 3,7 1014,8 97 - -
01:19 -1,9 -2,3   Stille   1014,9 97 - -
01:24 -1,7 -2,1   Stille   1014,9 97 - -
01:29 -1,7 -2,1   Stille   1014,9 97 - -
01:34 -2,4 -2,8   Stille   1014,9 97 - -
01:39 -2,0 -2,4   Stille   1014,8 97 - -
01:44 -1,9 -2,2   Stille   1014,8 98 - -
01:49 -1,7 -2,0 1,8 ØNØ 3,4 1014,8 98 - -
01:54 -1,9 -2,3 2,6 ØNØ 3,7 1014,8 97 - -
01:59 -1,8 -2,1 1,4 ØNØ 3,7 1014,8 98 - -
02:04 -1,6 -1,8   Stille   1014,9 98 - -
02:09 -1,3 -1,6 0,6 ØNØ 1,9 1014,8 98 - -
02:14 -0,9 -1,2 5,8 ØNØ 7,4 1014,8 98 - -
02:19 -1,4 -1,7 0,3 ØNØ 3,7 1014,8 98 - -
02:24 -2,2 -2,6 2,1 ØNØ 3,7 1014,8 97 - -
02:29 -1,8 -2,1 2,7 ØNØ 3,7 1014,8 98 - -
02:34 -1,9 -2,3 0,2 ØNØ 1,6 1014,8 97 - -
02:39 -1,7 -2,1 4,5 ØNØ 5,6 1014,7 97 - -
02:44 -1,7 -2,1 2,7 ØNØ 3,7 1014,8 97 - -
02:49 -1,5 -1,8 3,4 ØNØ 3,7 1014,8 98 - -
02:54 -1,1 -1,3 4,5 ØNØ 5,6 1014,8 98 - -
02:59 -1,6 -1,9 6,4 ØNØ 8,4 1014,7 97 - -
03:04 -0,7 -0,9 6,8 ØNØ 11,1 1014,8 98 - -
03:09 -0,2 -0,5 4,7 Øst 6,8 1014,8 98 - -
03:14 0,2 -0,1 5,0 ØNØ 5,6 1014,9 98 - -
03:19 0,4 0,1 5,5 ØNØ 7,4 1014,9 98 - -
03:24 -0,4 -0,9 6,3 ØNØ 7,4 1014,8 97 - -
03:29 -0,6 -1,1 5,1 ØNØ 7,4 1014,9 97 - -
03:34 -0,1 -0,4 6,8 ØNØ 9,3 1014,9 98 - -
03:39 0,6 0,3 6,4 ØNØ 7,4 1014,9 98 - -
03:44 0,7 0,4 3,5 Øst 5,6 1015,0 98 - -
03:49 0,5 0,1   Stille   1015,0 97 - -
03:54 0,7 0,2 3,1 Øst 3,7 1014,9 97 - -
03:59 0,7 0,3 3,9 Øst 5,6 1014,9 97 - -
04:04 0,8 0,4 5,3 Øst 5,6 1014,8 97 - -
04:09 0,7 0,2 4,0 Øst 5,6 1014,9 97 - -
04:14 0,7 0,3 3,7 Øst 5,6 1014,8 97 - -
04:19 0,8 0,4 3,7 Øst 5,6 1014,8 97 - -
04:24 0,6 0,1 3,4 Øst 5,1 1014,8 96 - -
04:29 0,2 -0,3 5,1 Øst 6,8 1014,8 96 - -
04:34 0,7 0,2 6,4 ØNØ 7,4 1014,8 97 - -
04:39 1,0 0,6 8,5 9,3 1014,8 97 - -
04:44 1,1 0,6 6,6 ØNØ 9,3 1014,8 96 - -
04:49 1,1 0,6 7,1 ØNØ 9,3 1014,7 96 - -
04:54 1,2 0,6 6,6 ØNØ 9,3 1014,7 96 - -
04:59 1,2 0,5 5,0 ØNØ 7,4 1014,8 95 - -
05:04 1,1 0,4 2,4 ØNØ 3,7 1014,8 95 - -
05:09 1,1 0,3 5,1 ØNØ 7,4 1014,8 95 - -
05:14 1,2 0,4 4,0 ØNØ 5,6 1014,7 95 - -
05:19 1,1 0,4 1,3 ØNØ 3,7 1014,7 95 - -
05:24 1,1 0,3 2,4 ØNØ 5,6 1014,7 95 - -
05:29 1,0 0,3   Stille   1014,7 95 - -
05:34 0,9 0,2 0,8 ØNØ 1,9 1014,8 95 - -
05:39 1,1 0,4 2,4 ØNØ 3,7 1014,7 95 - -
05:44 1,3 0,6 3,7 ØNØ 5,6 1014,7 95 - -
05:49 1,2 0,4   Stille   1014,7 94 - -
05:54 1,2 0,4   Stille   1014,7 94 - -
05:59 1,3 0,4   Stille   1014,7 94 - -
06:04 1,2 0,4   Stille   1014,7 94 - -
06:09 1,2 0,4 4,0 ØNØ 6,8 1014,6 94 - -
06:14 1,3 0,4 6,8 9,3 1014,6 94 - -
06:19 1,4 0,4 6,0 7,4 1014,6 93 - -
06:24 1,4 0,4 4,3 5,6 1014,6 93 - -
06:29 1,4 0,4 4,3 5,6 1014,6 93 - -
06:34 1,4 0,4 2,4 5,6 1014,6 93 - -
06:39 1,3 0,3 0,8 1,9 1014,6 93 - -
06:44 1,3 0,4   Stille   1014,5 94 - -
06:49 1,5 0,7   Stille   1014,6 94 - -
06:54 1,3 0,5   Stille   1014,7 94 - -
06:59 1,3 0,6   Stille   1014,7 95 - -
07:04 1,3 0,6   Stille   1014,7 95 - -
07:09 1,1 0,4   Stille   1014,8 95 - -
07:14 1,1 0,4   Stille   1014,7 95 - -
07:19 1,1 0,6   Stille   1014,6 96 - -
07:24 1,3 0,7 7,1 9,3 1014,6 96 - -
07:29 1,4 0,8 5,8 9,3 1014,6 96 - -
07:34 1,4 0,8 6,4 NNØ 9,3 1014,7 96 - -
07:39 1,4 1,0 6,0 NNØ 7,4 1014,7 97 - -
07:44 1,6 1,1 5,6 7,4 1014,8 97 - -
07:49 1,4 0,9 8,2 ØNØ 11,9 1014,7 97 - -
07:54 1,6 1,1 9,7 ØNØ 11,9 1014,7 97 - -
07:59 1,6 1,2 11,1 ØNØ 13,0 1014,8 97 - -
08:04 1,7 1,1 8,4 ØNØ 11,1 1014,7 96 - -
08:09 1,6 1,1 7,2 Øst 9,3 1014,9 96 - -
08:14 1,6 1,1 9,7 13,5 1014,9 96 1,00 -
08:19 1,6 1,1 8,2 11,1 1014,9 96 1,00 -
08:24 1,7 1,1 5,8 ØNØ 9,3 1014,9 96 1,00 -
08:29 1,7 1,1 5,5 ØNØ 7,4 1015,0 96 1,00 -
08:34 1,7 1,1 5,5 ØNØ 7,4 1015,0 96 1,00 -
08:39 1,7 1,1 8,5 ØNØ 11,9 1015,0 96 1,00 -
08:44 1,7 1,1 2,1 Øst 3,7 1015,1 96 1,00 -
08:49 1,8 1,2 5,6 ØNØ 9,3 1015,0 96 1,00 -
08:54 1,8 1,2   Stille   1015,1 96 1,00 -
08:59 1,7 1,0 7,4 Øst 9,3 1015,1 95 1,00 -
09:04 1,7 1,2 5,3 Øst 9,3 1015,2 96 1,00 -
09:09 1,8 1,2 2,6 Øst 5,6 1015,2 96 1,00 -
09:14 1,8 1,2 5,1 Øst 7,4 1015,2 96 - -
09:19 1,8 1,2 7,4 ØNØ 11,9 1015,2 96 - -
09:24 1,8 1,2 5,8 ØNØ 7,4 1015,3 96 - -
09:29 1,8 1,2 5,8 9,3 1015,4 96 - -
09:34 1,7 1,2 5,5 ØNØ 7,4 1015,4 96 - 5
09:39 1,7 1,1 8,0 Øst 11,9 1015,3 96 - 9
09:44 1,7 1,1 6,3 Øst 9,3 1015,3 96 - 11
09:49 1,7 1,1 6,4 ØNØ 8,4 1015,4 96 - 14
09:54 1,7 1,2 3,9 Øst 5,6 1015,4 96 - 21
09:59 1,7 1,2 4,5 Øst 7,4 1015,5 96 - 30
10:04 1,8 1,3 4,0 Øst 7,4 1015,6 96 - 32
10:09 1,9 1,3 5,1 ØNØ 7,4 1015,6 96 - 32
10:14 2,0 1,4 1,9 7,4 1015,7 96 - 25
10:19 2,0 1,4 0,8 3,7 1015,6 96 - 18
10:24 2,1 1,5 5,3 ØSØ 9,3 1015,6 96 - 11
10:29 2,1 1,5 7,9 11,9 1015,6 96 - 12
10:34 2,3 1,8 7,4 ØSØ 10,1 1015,6 96 - 11
10:39 2,4 1,9 8,7 11,9 1015,6 96 - 9
10:44 2,5 1,9 10,5 SSØ 15,3 1015,5 96 - 9
10:49 2,5 1,9 8,5 10,1 1015,5 96 - 12
10:54 2,5 1,9 8,5 SSØ 13,5 1015,5 96 - 14
10:59 2,6 1,8 6,8 SSØ 9,3 1015,5 95 - 21
11:04 2,6 1,9 8,5 SSØ 13,5 1015,5 95 - 28
11:09 2,7 2,0 8,7 SSØ 11,9 1015,6 95 - 32
11:14 2,7 2,0 7,9 Sør 9,3 1015,5 95 - 30
11:19 2,8 2,1 8,8 SSØ 10,1 1015,6 95 - 26
11:24 2,8 2,1 8,5 Sør 9,3 1015,5 95 - 25
11:29 2,8 2,1 10,8 Sør 13,5 1015,6 95 - 19
11:34 2,8 2,1 9,0 Sør 11,1 1015,6 95 - 16
11:39 2,8 2,1 12,6 Sør 15,3 1015,6 95 - 19
11:44 2,8 2,1 9,5 SSØ 16,9 1015,5 95 - 25
11:49 2,9 2,2 9,2 14,8 1015,5 95 - 28
11:54 3,0 2,3 11,4 SSØ 13,0 1015,5 95 - 19
11:59 3,1 2,3 12,2 SSØ 18,5 1015,5 95 - 18
12:04 3,1 2,4 12,2 SSØ 16,7 1015,4 95 - 16
12:09 3,1 2,4 14,8 SSØ 16,9 1015,4 95 - 16
12:14 3,1 2,3 14,8 Sør 16,9 1015,4 95 - 16
12:19 3,1 2,2 14,0 SSØ 16,7 1015,3 94 - 16
12:24 3,1 2,2 7,2 Sør 13,0 1015,3 94 - 18
12:29 3,1 2,2 11,3 SSØ 14,8 1015,3 94 - 33
12:34 3,1 2,2 7,9 SSØ 13,0 1015,4 94 - 46
12:39 3,1 2,2 9,0 SSØ 13,0 1015,4 94 - 51
12:44 3,1 2,2 12,6 SSØ 16,7 1015,4 94 - 40
12:49 3,2 2,3 12,1 SSØ 15,3 1015,4 94 - 37
12:54 3,2 2,3 11,7 Sør 15,3 1015,4 94 - 21
12:59 3,1 2,2 9,3 SSØ 11,1 1015,4 94 - 35
13:04 3,1 2,2 9,8 SSØ 13,0 1015,4 94 - 37
13:09 3,1 2,2 10,6 SSØ 13,5 1015,4 94 - 32
13:14 3,2 2,3 8,4 SSØ 11,1 1015,4 94 - 39
13:19 3,1 2,2 10,0 13,5 1015,3 94 - 33
13:24 3,2 2,3 10,0 SSØ 14,8 1015,3 94 - 25
13:29 3,3 2,4 10,1 Sør 14,8 1015,3 94 - 42
13:34 3,3 2,4 8,0 SSØ 10,1 1015,3 94 - 49
13:39 3,3 2,4 7,9 SSØ 11,9 1015,3 94 - 40
13:44 3,3 2,4 9,3 SSØ 16,7 1015,3 94 - 33
13:49 3,4 2,5 8,2 SSØ 13,0 1015,2 94 - 47
13:54 3,4 2,5 12,2 SSØ 16,9 1015,2 94 - 49
13:59 3,5 2,6 12,1 SSØ 13,5 1015,1 94 - 56
14:04 3,6 2,7 12,1 Sør 18,5 1015,2 94 - 56
14:09 3,6 2,7 13,5 Sør 16,9 1015,1 94 - 49
14:14 3,6 2,7 10,9 13,5 1015,0 94 - 69
14:19 3,6 2,7 12,2 SSØ 18,5 1015,0 94 - 46
14:24 3,6 2,7 12,7 Sør 18,5 1015,0 94 0,30 42
14:29 3,6 2,7 13,2 Sør 20,4 1014,9 94 0,30 53
14:34 3,6 2,7 14,0 SSØ 18,5 1014,9 94 0,30 33
14:39 3,6 2,6 11,9 SSØ 16,9 1014,9 93 0,30 26
14:44 3,6 2,6 12,6 Sør 16,9 1014,9 93 0,30 26
14:49 3,6 2,6 12,4 Sør 16,9 1014,9 93 0,30 40
14:54 3,6 2,6 10,9 SSØ 14,8 1014,9 93 0,30 30
14:59 3,6 2,6 12,9 SSØ 14,8 1014,8 93 0,30 21
15:04 3,5 2,5 10,3 Sør 15,3 1014,8 93 0,30 18
15:09 3,6 2,6 13,5 SSØ 22,2 1014,8 93 0,30 21
15:14 3,6 2,6 10,0 Sør 22,2 1014,8 93 0,30 19
15:19 3,6 2,6 11,4 SSØ 16,9 1014,8 93 0,30 25
15:24 3,6 2,6 13,2 SSØ 16,7 1014,8 93 - 21
15:29 3,6 2,6 16,3 Sør 20,4 1014,8 93 - 19
15:34 3,5 2,5 11,4 SSØ 15,3 1014,7 93 - 18
15:39 3,5 2,5 10,3 Sør 18,5 1014,8 93 - 16
15:44 3,4 2,4 16,3 SSØ 20,4 1014,7 93 - 16
15:49 3,4 2,4 13,2 SSØ 18,5 1014,7 93 - 16
15:54 3,4 2,4 14,2 Sør 18,5 1014,7 93 - 14
15:59 3,4 2,4 11,4 SSØ 16,7 1014,6 93 - 16
16:04 3,4 2,4 14,2 SSØ 20,3 1014,6 93 - 16
16:09 3,3 2,3 13,2 SSØ 16,9 1014,6 93 - 9
16:14 3,4 2,4 10,8 SSØ 16,7 1014,6 93 - 7
16:19 3,3 2,3 13,2 SSØ 18,5 1014,6 93 - -
16:24 3,4 2,4 11,9 SSØ 14,8 1014,5 93 - -
16:29 3,3 2,3 12,4 SSØ 18,5 1014,5 93 - -
16:34 3,3 2,3 11,9 SSØ 16,7 1014,5 93 - -
16:39 3,3 2,3 14,5 Sør 18,5 1014,6 93 - -
16:44 3,3 2,3 11,9 Sør 20,4 1014,6 93 - -
16:49 3,3 2,3 10,6 Sør 14,8 1014,5 93 - -
16:54 3,3 2,3 13,4 SSØ 18,5 1014,6 93 - -
16:59 3,3 2,2 11,7 SSØ 18,5 1014,5 92 - -
17:04 3,3 2,1 12,4 Sør 16,7 1014,5 92 - -
17:09 3,2 2,1 12,6 SSØ 14,8 1014,4 92 - -
17:14 3,2 2,1 11,6 SSØ 16,9 1014,4 92 - -
17:19 3,2 2,0 10,5 SSØ 16,7 1014,4 92 - -
17:24 3,2 2,0 12,7 SSØ 16,7 1014,3 92 - -
17:29 3,1 1,9 12,2 SSØ 15,3 1014,2 92 - -
17:34 3,2 2,0 11,9 SSØ 16,7 1014,1 92 - -
17:39 3,2 1,9 12,7 SSØ 16,7 1014,0 91 - -
17:44 3,2 1,9 9,3 16,7 1014,1 91 - -
17:49 3,2 1,8 10,3 SSØ 13,5 1014,1 91 - -
17:54 3,2 1,9 10,9 SSØ 14,8 1014,1 91 - -
17:59 3,1 1,6 12,1 SSØ 14,8 1014,1 90 - -
18:04 3,1 1,6 9,2 Sør 14,8 1014,1 90 - -
18:09 3,1 1,6 14,0 SSØ 15,3 1014,0 90 - -
18:14 3,1 1,6 10,3 SSØ 16,7 1013,9 90 - -
18:19 3,1 1,6 9,3 SSØ 16,7 1013,8 90 - -
18:24 3,2 1,7 12,7 Sør 18,5 1013,7 90 - -
18:29 3,2 1,7 13,0 SSØ 18,5 1013,7 90 - -
18:34 3,3 1,6 9,0 13,0 1013,7 89 - -
18:39 3,3 1,6 10,8 Sør 18,5 1013,6 89 - -
18:44 3,3 1,6 12,1 SSØ 16,7 1013,7 89 - -
18:49 3,3 1,6 14,2 SSØ 20,4 1013,6 89 - -
18:54 3,3 1,6 14,3 Sør 18,5 1013,6 89 - -
18:59 3,3 1,6 12,9 SSØ 22,2 1013,5 89 - -
19:04 3,3 1,6 15,1 SSØ 18,5 1013,5 89 - -
19:09 3,3 1,6 12,9 20,4 1013,4 89 - -
19:14 3,3 1,6 12,6 SSØ 14,8 1013,3 88 - -
19:19 3,3 1,5 14,8 SSØ 18,5 1013,3 88 - -
19:24 3,3 1,5 14,5 SSØ 20,4 1013,2 88 - -
19:29 3,4 1,6 14,3 SSØ 20,4 1013,2 88 - -
19:34 3,4 1,6 15,1 SSØ 16,9 1013,2 88 - -
19:39 3,5 1,7 19,5 SSØ 27,0 1013,2 88 - -
19:44 3,6 1,8 19,1 SSØ 22,0 1013,2 88 - -
19:49 3,6 1,8 21,7 SSØ 24,1 1013,1 88 - -
19:54 3,6 1,8 14,2 SSØ 18,5 1013,1 88 - -
19:59 3,5 1,8 15,0 Sør 20,4 1013,1 89 - -
20:04 3,4 1,8 18,2 Sør 22,0 1013,0 89 - -
20:09 3,4 1,9 18,2 Sør 22,0 1013,0 90 - -
20:14 3,4 1,9 15,4 Sør 22,2 1012,9 90 - -
20:19 3,4 1,9 14,3 Sør 20,3 1012,8 90 - -
20:24 3,4 2,1 17,7 SSØ 22,0 1012,8 91 - -
20:29 3,4 2,1 21,4 SSØ 25,3 1012,8 91 - -
20:34 3,4 2,1 16,6 Sør 22,2 1012,8 91 - -
20:39 3,4 2,3 17,1 Sør 25,9 1012,7 92 0,30 -
20:44 3,4 2,2 12,6 SSØ 24,1 1012,7 92 0,30 -
20:49 3,3 2,3 17,5 Sør 24,1 1012,7 93 0,30 -
20:53 3,3 2,3 19,3 Sør 23,7 1012,5 93 0,30 -
20:59 3,3 2,3 15,3 22,0 1012,5 93 0,30 -
21:04 3,3 2,3 24,9 SSØ 31,5 1012,5 93 0,30 -
21:09 3,2 2,2 28,0 Sør 33,8 1012,4 93 0,50 -
21:14 3,2 2,3 19,3 SSØ 25,9 1012,4 94 0,50 -
21:19 3,1 2,2 20,0 Sør 27,0 1012,4 94 0,50 -
21:24 2,9 2,1 22,2 SSØ 30,4 1012,4 94 0,50 -
21:29 2,8 1,9 26,4 SSØ 35,2 1012,4 94 0,50 -
21:34 2,7 2,0 24,1 SSØ 30,4 1012,4 95 0,50 -
21:39 2,6 1,9 19,0 25,3 1012,3 95 0,30 -
21:44 2,6 1,8 16,7 SSØ 27,8 1012,2 95 0,50 -
21:49 2,4 1,7 18,2 23,7 1012,2 95 0,50 -
21:54 2,4 1,7 17,4 SSØ 25,9 1012,2 95 0,50 -
21:59 2,4 1,7 20,4 25,9 1012,1 95 0,50 -
22:04 2,4 1,9 13,4 SV 20,4 1012,3 96 0,50 -
22:09 2,4 1,9 20,1 SV 32,0 1012,7 96 0,50 -
22:13 2,7 2,1 14,5 VEST 18,5 1012,7 96 0,50 -
22:19 2,6 2,1 12,7 VEST 16,7 1012,8 96 0,80 -
22:24 2,5 1,9 21,9 NV 29,6 1012,8 96 1,00 -
22:29 2,5 1,9 9,7 NV 15,3 1012,9 96 1,50 -
22:34 2,4 1,8 10,9 NNV 18,5 1013,0 96 1,50 -
22:39 2,4 1,8 13,0 NV 20,4 1012,9 96 1,80 -
22:44 2,4 1,9 10,8 NNV 18,5 1012,9 96 1,80 -
22:49 2,4 1,9 7,6 NV 11,1 1012,8 96 1,80 -
22:54 2,5 1,9 8,8 NNV 11,9 1012,8 96 2,00 -
22:59 2,5 1,9 5,3 NV 9,3 1012,8 96 2,00 -

Download your copy of this data-set  here

Our weather-data as stored at Weather Underground. Script utviklet av Jim McMurry. Tilrettelagt for malen av Leuven-Template.eu

Du finner vår vær info også på:

UK Metoffice

European Weather Network

WeatherCloud

Weather Underground

Utstyr vi bruker:

Værstsjon
Davis VP2

Værprogram
Weather Display

Davis VP2

Weather Display